Time;durP1;ratioP1;P1;durP2;ratioP2;P2;SDS_P1;SDS_P2;PMS_P1;PMS_P2;Temp;Humidity;BMP_temperature;BMP_pressure;BME280_temperature;BME280_humidity;BME280_pressure;Samples;Min_cycle;Max_cycle;Signal;HPM_P1;HPM_P2
2022/08/03 03:00:43;;;;;;;2.17;1.60;;;27.40;38.80;;;;;;5708638;23;46196;-59
2022/08/03 03:03:09;;;;;;;4.03;1.45;;;27.40;38.80;;;;;;4881929;28;45198;-58
2022/08/03 03:05:35;;;;;;;2.42;1.70;;;27.40;38.70;;;;;;4875710;29;47715;-59
2022/08/03 03:08:00;;;;;;;2.33;1.30;;;27.40;38.80;;;;;;4906459;28;45482;-57
2022/08/03 03:10:26;;;;;;;1.50;1.40;;;27.40;38.80;;;;;;4889488;29;44848;-59
2022/08/03 03:12:55;;;;;;;1.30;1.20;;;27.40;38.90;;;;;;4872863;29;45052;-59
2022/08/03 03:15:22;;;;;;;2.83;1.60;;;27.40;38.90;;;;;;4871272;29;46250;-60
2022/08/03 03:17:48;;;;;;;3.00;1.60;;;27.40;38.80;;;;;;4857317;29;45496;-59
2022/08/03 03:20:14;;;;;;;1.33;1.23;;;27.30;38.80;;;;;;4874010;29;45429;-60
2022/08/03 03:22:40;;;;;;;3.65;1.35;;;27.40;38.90;;;;;;4858071;29;45190;-59
2022/08/03 03:25:06;;;;;;;1.50;1.13;;;27.30;38.90;;;;;;4875873;29;46387;-60
2022/08/03 03:27:31;;;;;;;1.38;1.13;;;27.30;38.80;;;;;;4870822;29;45438;-59
2022/08/03 03:29:57;;;;;;;1.38;1.25;;;27.30;38.80;;;;;;4871543;29;45288;-58
2022/08/03 03:32:23;;;;;;;1.65;1.25;;;27.30;38.80;;;;;;4826530;29;45709;-56
2022/08/03 03:34:48;;;;;;;2.60;1.40;;;27.30;38.80;;;;;;4883472;28;45157;-58
2022/08/03 03:37:14;;;;;;;4.55;1.80;;;27.30;38.70;;;;;;4870661;29;45245;-59
2022/08/03 03:39:39;;;;;;;3.42;1.95;;;27.30;38.80;;;;;;4868808;29;45717;-60
2022/08/03 03:42:05;;;;;;;2.05;1.48;;;27.30;38.80;;;;;;4869867;29;45447;-59
2022/08/03 03:44:31;;;;;;;3.70;1.85;;;27.20;38.70;;;;;;4866589;29;45280;-57
2022/08/03 03:46:56;;;;;;;3.17;2.20;;;27.30;38.80;;;;;;4868709;29;45291;-56
2022/08/03 03:49:22;;;;;;;8.68;2.75;;;27.20;38.70;;;;;;4870691;29;45908;-55
2022/08/03 03:51:47;;;;;;;5.03;2.50;;;27.20;38.70;;;;;;4867838;29;45275;-59
2022/08/03 03:54:13;;;;;;;6.38;2.63;;;27.20;38.70;;;;;;4870832;29;45755;-59
2022/08/03 03:56:39;;;;;;;5.35;2.25;;;27.20;38.80;;;;;;4868853;29;45060;-57
2022/08/03 03:59:05;;;;;;;6.65;2.05;;;27.20;38.70;;;;;;4850330;29;45823;-59
2022/08/03 04:01:30;;;;;;;4.25;2.15;;;27.20;38.70;;;;;;4866644;29;45672;-59
2022/08/03 04:03:56;;;;;;;4.07;2.47;;;27.20;38.80;;;;;;4868992;29;46354;-60
2022/08/03 04:11:52;;;;;;;4.22;1.85;;;27.10;38.90;;;;;;4867586;29;45312;-59
2022/08/03 04:14:22;;;;;;;2.65;1.63;;;27.10;38.90;;;;;;4871072;29;46402;-61
2022/08/03 04:16:49;;;;;;;3.50;2.17;;;27.10;38.80;;;;;;4865350;29;45246;-60
2022/08/03 04:19:27;;;;;;;6.63;2.67;;;27.10;38.90;;;;;;4867927;29;44751;-60
2022/08/03 04:21:55;;;;;;;3.63;2.60;;;27.10;38.90;;;;;;4870987;29;45705;-61
2022/08/03 04:24:20;;;;;;;5.13;2.60;;;27.10;38.90;;;;;;4866531;29;46308;-60
2022/08/03 04:26:46;;;;;;;3.75;2.55;;;27.10;39.00;;;;;;4868154;29;45632;-60
2022/08/03 04:29:12;;;;;;;6.78;2.58;;;27.10;39.00;;;;;;4854508;29;44739;-59
2022/08/03 04:31:37;;;;;;;5.00;2.58;;;27.10;39.10;;;;;;4849267;29;45608;-60
2022/08/03 04:34:03;;;;;;;5.97;2.20;;;27.00;39.10;;;;;;4877934;28;45726;-59
2022/08/03 04:36:31;;;;;;;4.13;2.35;;;27.00;39.10;;;;;;4881827;28;46150;-58
2022/08/03 04:39:27;;;;;;;6.45;2.10;;;27.00;39.10;;;;;;4867879;29;45314;-60
2022/08/03 04:41:54;;;;;;;5.82;2.25;;;27.00;39.20;;;;;;4869876;29;46236;-60
2022/08/03 04:44:20;;;;;;;3.72;1.75;;;27.00;39.20;;;;;;4865893;29;45346;-61
2022/08/03 04:46:46;;;;;;;6.43;2.22;;;26.90;39.20;;;;;;4869379;29;45403;-60
2022/08/03 04:49:12;;;;;;;4.47;1.80;;;27.00;39.30;;;;;;4861868;29;44721;-60
2022/08/03 04:51:39;;;;;;;3.75;1.95;;;26.90;39.20;;;;;;4892520;28;45763;-59
2022/08/03 04:54:06;;;;;;;8.45;2.25;;;26.90;39.30;;;;;;4862697;29;45510;-59
2022/08/03 04:56:33;;;;;;;3.60;2.03;;;27.00;39.40;;;;;;4880718;29;45357;-59
2022/08/03 04:58:58;;;;;;;5.35;2.00;;;26.90;39.30;;;;;;4894276;28;45420;-61
2022/08/03 05:01:25;;;;;;;3.38;2.20;;;26.90;39.40;;;;;;4864985;29;44917;-58
2022/08/03 05:03:51;;;;;;;1.63;1.48;;;27.00;39.50;;;;;;4878902;29;46385;-61
2022/08/03 05:06:16;;;;;;;3.05;1.98;;;26.90;39.50;;;;;;4878825;29;44895;-58
2022/08/03 05:08:42;;;;;;;3.13;1.80;;;27.00;39.50;;;;;;4882323;28;45249;-57
2022/08/03 05:11:07;;;;;;;4.43;1.90;;;26.90;39.50;;;;;;4882677;29;44848;-61
2022/08/03 05:13:33;;;;;;;5.82;1.88;;;26.90;39.60;;;;;;4881611;29;46557;-57
2022/08/03 05:15:58;;;;;;;2.97;1.55;;;26.90;39.60;;;;;;4878151;29;44712;-60
2022/08/03 05:18:24;;;;;;;2.42;1.60;;;27.00;39.80;;;;;;4868839;29;46251;-61
2022/08/03 05:20:50;;;;;;;2.08;1.35;;;26.90;39.70;;;;;;4865145;29;45534;-60
2022/08/03 05:23:15;;;;;;;4.22;2.03;;;26.90;39.80;;;;;;4866260;29;46495;-59
2022/08/03 05:25:41;;;;;;;3.65;1.80;;;27.40;39.40;;;;;;4863376;29;46011;-60
2022/08/03 05:28:06;;;;;;;3.00;1.88;;;28.50;37.60;;;;;;4867104;29;45992;-59
2022/08/03 05:30:32;;;;;;;2.20;1.85;;;29.20;36.30;;;;;;4863690;29;45762;-60
2022/08/03 05:32:58;;;;;;;4.18;1.60;;;29.20;36.30;;;;;;4864129;28;46864;-61
2022/08/03 05:35:25;;;;;;;4.15;1.73;;;28.50;37.00;;;;;;4864420;29;45595;-60
2022/08/03 05:37:50;;;;;;;3.45;1.50;;;28.10;37.80;;;;;;4865274;28;45611;-60
2022/08/03 05:40:16;;;;;;;2.22;1.60;;;27.80;38.50;;;;;;4861425;29;45575;-60
2022/08/03 05:42:41;;;;;;;2.70;1.67;;;27.60;39.00;;;;;;4861852;29;46331;-60
2022/08/03 05:45:13;;;;;;;2.83;1.90;;;27.50;39.30;;;;;;4864050;29;44723;-60
2022/08/03 05:47:40;;;;;;;3.35;2.03;;;27.40;39.50;;;;;;4870301;29;45692;-60
2022/08/03 05:50:06;;;;;;;2.83;1.67;;;27.40;39.70;;;;;;4880368;29;45498;-59
2022/08/03 05:52:32;;;;;;;3.15;2.10;;;27.30;39.90;;;;;;4877900;29;45321;-59
2022/08/03 05:54:57;;;;;;;1.95;1.80;;;27.30;39.90;;;;;;4878865;29;45116;-60
2022/08/03 05:57:26;;;;;;;5.40;2.03;;;27.30;40.00;;;;;;4878121;29;45512;-60
2022/08/03 05:59:51;;;;;;;3.58;1.70;;;27.30;40.10;;;;;;4876866;29;45429;-62
2022/08/03 06:02:17;;;;;;;2.08;1.73;;;27.30;40.20;;;;;;4877344;29;45781;-60
2022/08/03 06:04:42;;;;;;;3.25;2.20;;;27.30;40.30;;;;;;4879517;29;45321;-59
2022/08/03 06:07:08;;;;;;;3.20;2.03;;;27.30;40.40;;;;;;4878288;29;45162;-61
2022/08/03 06:09:33;;;;;;;2.60;1.67;;;27.30;40.50;;;;;;4878873;29;45438;-60
2022/08/03 06:11:59;;;;;;;4.03;2.30;;;27.30;40.50;;;;;;4895490;28;45676;-60
2022/08/03 06:14:25;;;;;;;4.18;1.80;;;27.40;40.70;;;;;;4881609;29;45247;-59
2022/08/03 06:16:50;;;;;;;3.70;2.33;;;27.40;40.70;;;;;;4877497;29;45381;-61
2022/08/03 06:19:16;;;;;;;3.28;2.20;;;27.40;40.70;;;;;;4854488;29;45529;-61
2022/08/03 06:21:42;;;;;;;3.60;2.15;;;27.40;40.70;;;;;;4872558;29;45490;-61
2022/08/03 06:24:28;;;;;;;3.78;2.25;;;27.40;40.70;;;;;;4866126;29;45632;-60
2022/08/03 06:26:54;;;;;;;3.72;2.20;;;27.40;40.70;;;;;;4867250;29;45250;-61
2022/08/03 06:29:40;;;;;;;4.93;2.05;;;27.50;40.80;;;;;;4866428;29;45790;-63
2022/08/03 06:32:10;;;;;;;3.53;1.95;;;27.50;40.80;;;;;;4867121;29;46672;-61
2022/08/03 06:34:55;;;;;;;2.30;1.70;;;27.60;40.80;;;;;;4870120;29;45644;-60
2022/08/03 06:37:22;;;;;;;7.40;2.08;;;27.60;40.70;;;;;;4873874;29;46176;-59
2022/08/03 06:39:47;;;;;;;2.42;1.60;;;27.60;40.70;;;;;;4870092;29;45591;-61
2022/08/03 06:42:13;;;;;;;4.65;1.60;;;27.60;40.80;;;;;;4872347;28;45585;-59
2022/08/03 06:44:39;;;;;;;2.30;1.80;;;27.70;40.80;;;;;;4871768;29;45106;-59
2022/08/03 06:47:04;;;;;;;6.45;2.15;;;27.70;40.70;;;;;;4871665;29;45299;-61
2022/08/03 06:49:30;;;;;;;3.20;1.88;;;27.70;40.70;;;;;;4874581;29;45047;-59
2022/08/03 06:51:56;;;;;;;3.50;1.92;;;27.80;40.70;;;;;;4876286;29;47103;-60
2022/08/03 06:54:23;;;;;;;2.53;2.05;;;27.80;40.70;;;;;;4875674;29;44876;-61
2022/08/03 06:56:48;;;;;;;2.33;1.80;;;27.80;40.60;;;;;;4859045;28;45193;-60
2022/08/03 06:59:14;;;;;;;4.63;1.92;;;27.90;40.60;;;;;;4892290;28;45773;-60
2022/08/03 07:01:40;;;;;;;2.85;2.03;;;28.00;40.60;;;;;;4887057;28;46591;-60
2022/08/03 07:04:05;;;;;;;4.03;1.80;;;28.10;40.60;;;;;;4894469;28;44770;-60
2022/08/03 07:06:31;;;;;;;2.55;1.80;;;28.10;40.60;;;;;;4893413;28;45082;-59
2022/08/03 07:08:58;;;;;;;4.30;1.85;;;28.10;40.50;;;;;;4906703;28;45416;-59
2022/08/03 07:11:24;;;;;;;4.05;1.92;;;28.20;40.50;;;;;;4896092;28;45377;-59
2022/08/03 07:13:50;;;;;;;3.70;2.15;;;28.20;40.50;;;;;;4896476;28;45400;-59
2022/08/03 07:16:15;;;;;;;3.05;2.20;;;28.20;40.40;;;;;;4866463;28;44922;-61
2022/08/03 07:18:41;;;;;;;3.78;2.40;;;28.30;40.50;;;;;;4890205;28;45250;-59
2022/08/03 07:21:08;;;;;;;4.90;2.00;;;28.30;40.50;;;;;;4888648;28;46620;-60
2022/08/03 07:23:34;;;;;;;2.22;1.40;;;28.30;40.40;;;;;;4893554;28;44645;-60
2022/08/03 07:25:59;;;;;;;2.22;1.98;;;28.30;40.40;;;;;;4890898;28;45213;-61
2022/08/03 07:28:25;;;;;;;2.97;2.13;;;28.40;40.60;;;;;;4894683;28;45428;-60
2022/08/03 07:30:51;;;;;;;3.05;2.10;;;28.40;40.50;;;;;;4889387;28;46052;-60
2022/08/03 07:33:16;;;;;;;4.47;2.08;;;28.40;40.50;;;;;;4892711;28;44981;-61
2022/08/03 07:35:42;;;;;;;2.30;1.90;;;28.40;40.50;;;;;;4895268;28;45404;-61
2022/08/03 07:38:07;;;;;;;5.22;2.22;;;28.50;40.60;;;;;;4899538;28;45189;-60
2022/08/03 07:40:33;;;;;;;5.50;2.63;;;28.50;40.70;;;;;;4876671;28;47039;-60
2022/08/03 07:42:59;;;;;;;4.53;2.05;;;28.50;40.60;;;;;;4894372;28;45463;-61
2022/08/03 07:45:25;;;;;;;3.33;2.00;;;28.60;40.60;;;;;;4891850;28;45497;-61
2022/08/03 07:47:51;;;;;;;5.95;2.05;;;28.60;40.60;;;;;;4893692;28;45223;-59
2022/08/03 07:50:16;;;;;;;5.32;2.00;;;28.60;40.50;;;;;;4875426;29;45386;-60
2022/08/03 07:52:52;;;;;;;3.47;2.22;;;28.70;40.60;;;;;;4889486;28;45079;-60
2022/08/03 07:55:19;;;;;;;7.13;2.30;;;28.70;41.10;;;;;;4890347;28;45276;-61
2022/08/03 07:57:44;;;;;;;4.13;1.92;;;28.80;40.50;;;;;;4889711;28;45082;-59
2022/08/03 08:00:17;;;;;;;5.03;2.03;;;28.80;40.50;;;;;;4876726;29;45575;-59
2022/08/03 08:02:43;;;;;;;4.40;2.70;;;28.80;40.50;;;;;;4891131;28;45227;-58
2022/08/03 08:05:09;;;;;;;3.60;2.30;;;28.80;40.40;;;;;;4894657;28;45333;-60
2022/08/03 08:07:35;;;;;;;5.10;2.15;;;28.90;40.50;;;;;;4893872;28;45608;-60
2022/08/03 08:10:01;;;;;;;4.38;2.50;;;28.90;40.40;;;;;;4892490;28;45414;-62
2022/08/03 08:12:27;;;;;;;2.83;1.83;;;28.90;40.40;;;;;;4894256;28;44970;-61
2022/08/03 08:14:52;;;;;;;4.97;2.20;;;29.00;40.40;;;;;;4894079;28;45450;-61
2022/08/03 08:17:18;;;;;;;3.08;2.47;;;29.00;40.30;;;;;;4878737;28;45334;-59
2022/08/03 08:19:44;;;;;;;9.85;2.30;;;29.10;40.30;;;;;;4884188;28;46306;-60
2022/08/03 08:22:09;;;;;;;4.20;1.73;;;29.10;40.30;;;;;;4896370;28;45244;-60
2022/08/03 08:24:35;;;;;;;2.38;2.13;;;29.10;40.20;;;;;;4896215;28;45914;-59
2022/08/03 08:27:01;;;;;;;5.70;2.47;;;29.10;40.20;;;;;;4894728;28;45193;-60
2022/08/03 08:29:26;;;;;;;4.05;1.83;;;29.10;40.10;;;;;;4874216;28;47868;-61
2022/08/03 08:31:52;;;;;;;4.82;1.92;;;29.20;40.10;;;;;;4888891;28;45182;-59
2022/08/03 08:34:17;;;;;;;4.70;2.20;;;29.20;40.70;;;;;;4891877;28;45321;-61
2022/08/03 08:36:43;;;;;;;3.70;1.85;;;29.30;40.10;;;;;;4891947;28;44834;-60
2022/08/03 08:39:09;;;;;;;6.13;2.13;;;29.30;40.10;;;;;;4906006;28;48268;-59
2022/08/03 08:41:34;;;;;;;3.15;1.75;;;29.40;40.00;;;;;;4891570;28;45370;-61
2022/08/03 08:44:01;;;;;;;2.50;1.90;;;29.40;40.00;;;;;;4890316;28;45225;-61
2022/08/03 08:46:26;;;;;;;3.00;1.88;;;29.40;40.00;;;;;;4888474;28;45661;-61
2022/08/03 08:48:52;;;;;;;3.83;2.30;;;29.40;40.00;;;;;;4892064;28;45735;-59
2022/08/03 08:51:19;;;;;;;4.82;2.05;;;29.40;39.90;;;;;;4891751;28;45244;-60
2022/08/03 08:53:46;;;;;;;3.65;2.30;;;29.50;39.90;;;;;;4888537;28;45462;-59
2022/08/03 08:56:15;;;;;;;4.10;2.40;;;29.50;39.90;;;;;;4895638;28;45082;-61
2022/08/03 08:58:43;;;;;;;2.72;1.98;;;29.50;39.90;;;;;;4906166;28;45132;-62
2022/08/03 09:01:09;;;;;;;5.75;1.98;;;29.50;39.80;;;;;;4889645;28;45450;-60
2022/08/03 09:03:34;;;;;;;5.68;1.85;;;29.50;39.80;;;;;;4893698;28;45432;-61
2022/08/03 09:06:00;;;;;;;2.53;2.08;;;29.60;39.70;;;;;;4893290;28;45079;-61
2022/08/03 09:08:27;;;;;;;4.43;2.25;;;29.60;39.70;;;;;;4893009;28;45495;-61
2022/08/03 09:10:52;;;;;;;2.80;1.80;;;29.60;39.60;;;;;;4892017;28;45362;-61
2022/08/03 09:13:18;;;;;;;5.22;2.05;;;29.70;39.60;;;;;;4893093;28;45210;-61
2022/08/03 09:15:45;;;;;;;3.08;2.20;;;29.70;39.50;;;;;;4887054;28;45305;-61
2022/08/03 09:18:11;;;;;;;4.30;1.90;;;29.70;39.50;;;;;;4889342;28;45367;-60
2022/08/03 09:20:36;;;;;;;3.15;2.05;;;29.70;39.40;;;;;;4890452;28;45396;-61
2022/08/03 09:23:10;;;;;;;3.33;2.00;;;29.80;39.30;;;;;;4892080;28;45636;-60
2022/08/03 09:25:42;;;;;;;3.38;1.77;;;29.80;39.30;;;;;;4891345;28;45234;-61
2022/08/03 09:28:11;;;;;;;;;;;29.90;39.40;;;;;;4892675;28;45602;-62
2022/08/03 09:30:38;;;;;;;4.97;1.90;;;29.90;39.30;;;;;;4889560;28;45248;-62
2022/08/03 09:33:05;;;;;;;2.65;1.92;;;29.90;39.30;;;;;;4886015;28;44911;-62
2022/08/03 09:35:30;;;;;;;3.78;2.03;;;29.90;39.20;;;;;;4903694;28;45691;-62
2022/08/03 09:38:13;;;;;;;3.00;1.70;;;29.90;39.20;;;;;;4891841;28;45430;-62
2022/08/03 09:40:39;;;;;;;4.88;2.00;;;29.90;39.10;;;;;;4876612;29;45535;-62
2022/08/03 09:43:06;;;;;;;4.53;1.90;;;29.90;39.20;;;;;;4896026;28;45182;-62
2022/08/03 09:45:33;;;;;;;4.57;1.70;;;29.90;39.10;;;;;;4893071;28;45600;-62
2022/08/03 09:48:21;;;;;;;4.72;2.10;;;30.00;39.20;;;;;;4909481;28;45610;-62
2022/08/03 09:50:53;;;;;;;2.58;1.75;;;30.00;39.10;;;;;;4895039;28;45439;-62
2022/08/03 09:53:19;;;;;;;1.73;1.60;;;30.00;39.10;;;;;;4900748;28;45236;-61
2022/08/03 09:55:58;;;;;;;3.20;1.70;;;30.00;39.10;;;;;;4895462;28;45559;-61
2022/08/03 09:58:25;;;;;;;5.85;2.05;;;30.10;38.90;;;;;;4900359;28;45307;-62
2022/08/03 10:01:03;;;;;;;3.00;1.90;;;30.00;38.90;;;;;;4895450;28;45517;-60
2022/08/03 10:03:34;;;;;;;2.20;1.75;;;30.10;38.80;;;;;;4863120;28;45153;-62
2022/08/03 10:06:14;;;;;;;1.52;1.42;;;30.10;38.80;;;;;;4893769;28;45339;-62
2022/08/03 10:08:39;;;;;;;2.72;1.95;;;30.10;38.40;;;;;;4894145;28;45546;-62
2022/08/03 10:11:05;;;;;;;3.60;1.35;;;30.10;38.60;;;;;;4894289;28;45069;-61
2022/08/03 10:13:30;;;;;;;4.78;1.88;;;30.20;38.60;;;;;;4906800;28;45436;-62
2022/08/03 10:15:56;;;;;;;1.88;1.48;;;30.20;38.50;;;;;;4893789;28;45667;-62
2022/08/03 10:18:22;;;;;;;5.35;1.90;;;30.20;38.50;;;;;;4896313;28;45127;-61
2022/08/03 10:20:50;;;;;;;4.50;2.17;;;30.20;38.50;;;;;;4878161;29;45457;-59
2022/08/03 10:23:16;;;;;;;2.10;1.52;;;30.20;38.50;;;;;;4893448;28;44896;-61
2022/08/03 10:25:42;;;;;;;2.22;1.63;;;30.20;38.40;;;;;;4891210;28;45749;-61
2022/08/03 10:28:09;;;;;;;1.70;1.60;;;30.20;38.30;;;;;;4877376;29;46230;-62
2022/08/03 10:30:35;;;;;;;2.88;2.00;;;30.30;38.30;;;;;;4880109;28;45768;-62
2022/08/03 10:33:08;;;;;;;4.47;1.83;;;30.30;38.20;;;;;;4907507;28;45399;-62
2022/08/03 10:35:33;;;;;;;2.40;1.90;;;30.30;38.10;;;;;;4892691;28;45332;-62
2022/08/03 10:38:02;;;;;;;1.90;1.63;;;30.30;38.10;;;;;;4893952;28;46267;-60
2022/08/03 10:40:30;;;;;;;1.70;1.60;;;30.30;37.90;;;;;;4894356;28;45077;-61
2022/08/03 10:43:08;;;;;;;2.40;1.52;;;30.40;38.00;;;;;;4895418;28;45389;-61
2022/08/03 10:45:35;;;;;;;1.90;1.70;;;30.40;37.70;;;;;;4889937;29;45005;-61
2022/08/03 10:48:01;;;;;;;2.50;1.45;;;30.40;37.70;;;;;;4891431;28;46528;-61
2022/08/03 10:50:27;;;;;;;1.77;1.67;;;30.40;37.70;;;;;;4891957;28;45255;-62
2022/08/03 10:53:00;;;;;;;2.05;1.52;;;30.50;37.70;;;;;;4894302;28;45169;-62
2022/08/03 10:58:36;;;;;;;3.40;1.38;;;30.50;37.50;;;;;;4893876;28;46543;-62
2022/08/03 11:01:08;;;;;;;2.25;1.63;;;30.50;37.10;;;;;;4893506;28;45426;-61
2022/08/03 11:03:54;;;;;;;2.30;1.95;;;30.50;37.40;;;;;;4892731;28;44761;-63
2022/08/03 11:06:21;;;;;;;2.88;1.67;;;30.60;37.10;;;;;;4894790;28;44838;-62
2022/08/03 11:08:48;;;;;;;5.85;1.80;;;30.60;37.40;;;;;;4896500;28;46085;-62
2022/08/03 11:11:16;;;;;;;4.50;1.63;;;30.60;37.40;;;;;;4893391;29;45463;-62
2022/08/03 11:14:04;;;;;;;1.67;1.50;;;30.60;37.30;;;;;;4894246;28;45267;-61
2022/08/03 11:16:33;;;;;;;1.63;1.50;;;30.60;36.90;;;;;;4894464;28;45067;-62
2022/08/03 11:19:00;;;;;;;2.42;1.63;;;30.60;37.30;;;;;;4895305;28;45652;-62
2022/08/03 11:21:49;;;;;;;1.90;1.70;;;30.60;37.20;;;;;;4894689;28;44735;-62
2022/08/03 11:24:39;;;;;;;1.67;1.58;;;30.60;36.80;;;;;;4884288;28;45588;-63
2022/08/03 11:27:14;;;;;;;1.80;1.50;;;30.60;36.80;;;;;;4875029;29;44950;-62
2022/08/03 11:30:06;;;;;;;1.88;1.67;;;30.60;36.90;;;;;;4894185;28;45290;-60
2022/08/03 11:32:42;;;;;;;2.50;1.83;;;30.60;36.70;;;;;;4891234;28;45526;-61
2022/08/03 11:35:11;;;;;;;1.48;1.38;;;30.70;36.90;;;;;;4892694;28;44930;-62
2022/08/03 11:37:59;;;;;;;3.55;1.40;;;30.70;37.10;;;;;;4893640;28;44824;-62
2022/08/03 11:40:48;;;;;;;1.42;1.30;;;30.70;36.50;;;;;;4908229;28;46292;-62
2022/08/03 11:43:28;;;;;;;1.75;1.50;;;30.70;36.60;;;;;;4894533;28;45157;-62
2022/08/03 11:46:06;;;;;;;1.27;1.17;;;30.70;36.60;;;;;;4893473;28;45261;-62
2022/08/03 11:48:39;;;;;;;1.92;1.73;;;30.70;36.70;;;;;;4895119;28;45507;-62
2022/08/03 11:51:06;;;;;;;;;;;30.70;36.60;;;;;;4892405;28;46292;-62
2022/08/03 11:53:32;;;;;;;3.35;1.60;;;30.70;36.40;;;;;;4893643;28;45502;-61
2022/08/03 11:55:58;;;;;;;2.55;1.48;;;30.80;36.80;;;;;;4890933;28;45558;-62
2022/08/03 11:58:23;;;;;;;4.53;1.40;;;30.80;36.70;;;;;;4893071;28;45398;-62
2022/08/03 12:00:49;;;;;;;1.38;1.27;;;30.80;36.70;;;;;;4876186;29;46152;-62
2022/08/03 12:03:16;;;;;;;1.95;1.70;;;30.80;36.60;;;;;;4893065;28;45376;-63
2022/08/03 12:05:44;;;;;;;2.30;1.60;;;30.80;36.60;;;;;;4892800;28;44908;-62
2022/08/03 12:08:10;;;;;;;1.85;1.58;;;30.80;36.60;;;;;;4893421;28;44850;-62
2022/08/03 12:10:36;;;;;;;2.55;1.55;;;30.80;36.50;;;;;;4890921;28;45420;-62
2022/08/03 12:13:04;;;;;;;2.90;1.27;;;30.80;36.40;;;;;;4890156;28;44741;-62
2022/08/03 12:15:32;;;;;;;1.58;1.30;;;30.80;36.40;;;;;;4893675;28;45466;-62
2022/08/03 12:17:58;;;;;;;2.42;1.20;;;30.90;36.50;;;;;;4894383;28;44662;-63
2022/08/03 12:20:25;;;;;;;2.28;1.27;;;30.90;36.30;;;;;;4891155;28;45478;-61
2022/08/03 12:22:51;;;;;;;2.58;1.52;;;30.90;36.20;;;;;;4908070;28;45250;-62
2022/08/03 12:25:26;;;;;;;3.47;1.42;;;30.90;36.30;;;;;;4891234;28;46044;-62
2022/08/03 12:27:53;;;;;;;1.45;1.35;;;30.90;35.90;;;;;;4890459;28;45045;-62
2022/08/03 12:30:18;;;;;;;1.35;1.23;;;30.90;36.10;;;;;;4890239;28;46277;-62
2022/08/03 12:32:44;;;;;;;2.38;1.50;;;31.00;36.10;;;;;;4875011;29;44743;-62
2022/08/03 12:35:10;;;;;;;1.48;1.38;;;31.00;36.10;;;;;;4894645;28;44928;-62
2022/08/03 12:37:35;;;;;;;1.52;1.38;;;31.00;35.90;;;;;;4891279;28;45075;-62
2022/08/03 12:40:03;;;;;;;1.58;1.17;;;31.00;35.90;;;;;;4893965;29;45245;-62
2022/08/03 12:42:33;;;;;;;1.80;1.25;;;31.00;35.90;;;;;;4892592;28;45603;-62
2022/08/03 12:44:59;;;;;;;2.00;1.33;;;31.00;35.70;;;;;;4887318;28;45563;-61
2022/08/03 12:47:24;;;;;;;2.28;1.25;;;31.00;35.80;;;;;;4893260;28;44755;-62
2022/08/03 12:49:51;;;;;;;2.42;1.48;;;31.00;35.70;;;;;;4892010;28;45320;-62
2022/08/03 12:52:17;;;;;;;2.83;1.63;;;31.00;35.70;;;;;;4892706;28;44714;-62
2022/08/03 12:54:56;;;;;;;2.33;1.40;;;31.00;35.60;;;;;;4892523;28;44904;-62
2022/08/03 12:57:22;;;;;;;1.35;1.20;;;31.00;35.00;;;;;;4889577;28;45959;-60
2022/08/03 12:59:47;;;;;;;1.45;1.30;;;31.00;35.50;;;;;;4889132;28;45913;-62
2022/08/03 13:02:20;;;;;;;1.30;1.20;;;31.00;35.40;;;;;;4886409;28;44706;-62
2022/08/03 13:04:46;;;;;;;1.58;1.48;;;31.00;35.10;;;;;;4886947;28;45325;-63
2022/08/03 13:07:12;;;;;;;2.75;1.75;;;31.00;35.30;;;;;;4892974;28;44979;-63
2022/08/03 13:09:48;;;;;;;1.40;1.30;;;31.00;35.30;;;;;;4891308;28;46941;-62
2022/08/03 13:12:17;;;;;;;1.13;1.13;;;31.00;35.10;;;;;;4889944;28;45299;-62
2022/08/03 13:14:46;;;;;;;1.92;1.58;;;31.00;35.20;;;;;;4893610;28;45363;-63
2022/08/03 13:17:12;;;;;;;2.95;1.50;;;31.00;35.20;;;;;;4891697;28;44757;-63
2022/08/03 13:19:38;;;;;;;1.60;1.50;;;31.00;35.20;;;;;;4893909;28;45408;-63
2022/08/03 13:22:11;;;;;;;2.05;1.40;;;31.10;35.20;;;;;;4896228;28;45167;-63
2022/08/03 13:24:37;;;;;;;1.50;1.40;;;31.10;35.00;;;;;;4897900;28;45030;-63
2022/08/03 13:27:04;;;;;;;1.30;1.20;;;31.10;35.20;;;;;;4895091;29;44872;-63
2022/08/03 13:29:29;;;;;;;2.35;1.60;;;31.10;35.20;;;;;;4895987;28;45382;-63
2022/08/03 13:31:55;;;;;;;1.58;1.25;;;31.10;35.10;;;;;;4894855;28;45200;-63
2022/08/03 13:34:20;;;;;;;1.30;1.20;;;31.10;35.10;;;;;;4896674;28;45352;-63
2022/08/03 13:36:46;;;;;;;3.25;1.40;;;31.10;35.10;;;;;;4892835;28;45629;-60
2022/08/03 13:39:11;;;;;;;2.95;1.48;;;31.10;35.10;;;;;;4909846;28;45546;-60
2022/08/03 13:41:37;;;;;;;2.05;1.27;;;31.10;35.10;;;;;;4894531;29;45297;-63
2022/08/03 13:44:03;;;;;;;1.52;1.42;;;31.10;35.00;;;;;;4893975;28;45208;-61
2022/08/03 13:46:28;;;;;;;1.30;1.20;;;31.10;35.00;;;;;;4895089;28;45016;-61
2022/08/03 13:48:54;;;;;;;2.15;1.20;;;31.10;35.00;;;;;;4896647;28;45237;-61
2022/08/03 13:51:19;;;;;;;1.58;1.27;;;31.10;35.00;;;;;;4895895;28;45335;-60
2022/08/03 13:53:45;;;;;;;1.63;1.30;;;31.10;35.00;;;;;;4897025;28;45287;-60
2022/08/03 13:56:10;;;;;;;1.25;1.15;;;31.10;35.00;;;;;;4895212;28;44992;-61
2022/08/03 13:58:36;;;;;;;1.20;1.13;;;31.10;34.90;;;;;;4896749;28;45449;-61
2022/08/03 14:01:01;;;;;;;2.88;1.20;;;31.10;34.90;;;;;;4892443;28;44656;-60
2022/08/03 14:03:27;;;;;;;1.10;1.02;;;31.20;34.90;;;;;;4895918;28;44754;-60
2022/08/03 14:05:52;;;;;;;1.15;1.05;;;31.20;34.80;;;;;;4887205;28;45567;-60
2022/08/03 14:08:18;;;;;;;1.10;1.08;;;31.20;34.70;;;;;;4882121;28;45983;-60
2022/08/03 14:10:44;;;;;;;1.63;1.05;;;31.20;34.60;;;;;;4888664;28;45174;-61
2022/08/03 14:13:10;;;;;;;1.38;1.27;;;31.20;34.50;;;;;;4894295;28;45642;-61
2022/08/03 14:15:36;;;;;;;1.27;1.17;;;31.20;34.50;;;;;;4891756;28;44898;-61
2022/08/03 14:18:01;;;;;;;1.20;1.10;;;31.20;34.50;;;;;;4890023;28;46228;-61
2022/08/03 14:20:27;;;;;;;1.30;1.20;;;31.20;34.40;;;;;;4891519;28;45596;-61
2022/08/03 14:22:53;;;;;;;1.20;1.10;;;31.20;34.40;;;;;;4890072;28;45273;-61
2022/08/03 14:25:19;;;;;;;1.00;0.80;;;31.20;34.40;;;;;;4893209;28;45457;-61
2022/08/03 14:27:44;;;;;;;1.90;1.17;;;31.20;34.30;;;;;;4887450;28;45516;-61
2022/08/03 14:30:10;;;;;;;1.17;1.08;;;31.20;34.30;;;;;;4891669;28;45024;-62
2022/08/03 14:32:36;;;;;;;1.35;1.25;;;31.20;34.20;;;;;;4905961;28;45568;-62
2022/08/03 14:35:02;;;;;;;1.15;1.00;;;31.20;34.10;;;;;;4892589;28;44794;-61
2022/08/03 14:37:27;;;;;;;1.23;1.13;;;31.20;34.10;;;;;;4889666;28;46123;-61
2022/08/03 14:39:53;;;;;;;2.25;1.55;;;31.20;34.10;;;;;;4891082;28;45859;-62
2022/08/03 14:42:19;;;;;;;1.33;1.17;;;31.20;34.00;;;;;;4894915;28;45517;-62
2022/08/03 14:44:45;;;;;;;1.13;1.02;;;31.20;34.00;;;;;;4890183;28;45365;-60
2022/08/03 14:47:10;;;;;;;1.10;1.10;;;31.20;34.00;;;;;;4904291;28;45667;-61
2022/08/03 14:49:36;;;;;;;1.13;1.02;;;31.20;34.00;;;;;;4890669;28;45319;-62
2022/08/03 14:52:03;;;;;;;1.75;1.00;;;31.20;33.90;;;;;;4892174;28;44802;-61
2022/08/03 14:54:30;;;;;;;1.92;1.20;;;31.20;33.90;;;;;;4890701;28;45267;-61
2022/08/03 14:56:59;;;;;;;0.98;0.82;;;31.20;33.80;;;;;;4886346;28;45863;-63
2022/08/03 14:59:24;;;;;;;1.35;1.08;;;31.20;33.90;;;;;;4886139;28;45306;-61
2022/08/03 15:01:50;;;;;;;3.67;1.50;;;31.20;33.80;;;;;;4886292;28;45535;-61
2022/08/03 15:04:16;;;;;;;1.38;1.08;;;31.30;33.80;;;;;;4885738;28;45316;-61
2022/08/03 15:06:41;;;;;;;1.17;1.00;;;31.30;33.80;;;;;;4887295;28;45918;-61
2022/08/03 15:09:07;;;;;;;2.90;1.58;;;31.20;33.70;;;;;;4888139;28;45326;-62
2022/08/03 15:11:32;;;;;;;1.17;1.08;;;31.30;33.70;;;;;;4887240;28;45622;-61
2022/08/03 15:13:58;;;;;;;0.82;0.82;;;31.30;33.70;;;;;;4885920;28;44678;-61
2022/08/03 15:16:23;;;;;;;1.30;1.20;;;31.30;33.70;;;;;;4889463;28;45523;-62
2022/08/03 15:18:49;;;;;;;1.23;1.05;;;31.30;33.70;;;;;;4886672;28;45191;-61
2022/08/03 15:21:14;;;;;;;1.90;1.10;;;31.30;33.60;;;;;;4890055;28;44801;-62
2022/08/03 15:23:40;;;;;;;2.13;0.88;;;31.30;33.60;;;;;;4890726;28;45267;-60
2022/08/03 15:26:06;;;;;;;1.20;1.10;;;31.30;33.60;;;;;;4889458;28;45609;-62
2022/08/03 15:28:31;;;;;;;1.02;0.98;;;31.30;33.60;;;;;;4887479;28;45439;-62
2022/08/03 15:30:57;;;;;;;2.05;0.90;;;31.30;33.60;;;;;;4882373;28;45281;-61
2022/08/03 15:33:23;;;;;;;0.82;0.82;;;31.30;33.60;;;;;;4887589;28;46149;-62
2022/08/03 15:35:48;;;;;;;1.10;1.00;;;31.30;33.50;;;;;;4888190;28;45748;-61
2022/08/03 15:38:14;;;;;;;2.15;1.00;;;31.30;33.50;;;;;;4888138;28;45139;-61
2022/08/03 15:40:39;;;;;;;1.55;1.30;;;31.30;33.40;;;;;;4891684;28;45659;-62
2022/08/03 15:43:05;;;;;;;2.15;0.90;;;31.30;33.50;;;;;;4887420;28;45151;-62
2022/08/03 15:45:31;;;;;;;0.80;0.80;;;31.30;33.40;;;;;;4885862;28;45554;-61
2022/08/03 15:47:56;;;;;;;1.00;0.90;;;31.30;33.40;;;;;;4890986;28;45641;-61
2022/08/03 15:50:22;;;;;;;1.02;0.80;;;31.30;33.40;;;;;;4886838;28;45507;-62
2022/08/03 15:52:48;;;;;;;0.90;0.75;;;31.30;33.50;;;;;;4886756;28;45353;-62
2022/08/03 15:55:13;;;;;;;1.10;1.00;;;31.30;33.40;;;;;;4886486;28;45622;-62
2022/08/03 15:57:39;;;;;;;0.95;0.90;;;31.30;33.40;;;;;;4902328;28;45286;-62